Time;durP1;ratioP1;P1;durP2;ratioP2;P2;SDS_P1;SDS_P2;PMS_P1;PMS_P2;Temp;Humidity;BMP_temperature;BMP_pressure;BME280_temperature;BME280_humidity;BME280_pressure;Samples;Min_cycle;Max_cycle;Signal;HPM_P1;HPM_P2
2024/01/04 00:00:16;;;;;;;0.40;0.20;;;;;;;;;;487366;28;1186;-75
2024/01/04 00:00:31;;;;;;;0.60;0.20;;;;;;;;;;486110;28;1216;-75
2024/01/04 00:00:47;;;;;;;0.52;0.20;;;;;;;;;;488691;28;1104;-75
2024/01/04 00:01:03;;;;;;;0.50;0.20;;;;;;;;;;487356;28;1147;-74
2024/01/04 00:01:18;;;;;;;0.68;0.20;;;;;;;;;;487126;28;1410;-76
2024/01/04 00:01:34;;;;;;;0.57;0.10;;;;;;;;;;487209;28;960;-75
2024/01/04 00:01:50;;;;;;;0.80;0.17;;;;;;;;;;484645;28;1297;-75
2024/01/04 00:02:05;;;;;;;0.60;0.20;;;;;;;;;;484585;28;1219;-75
2024/01/04 00:02:20;;;;;;;0.97;0.20;;;;;;;;;;484087;28;1022;-75
2024/01/04 00:02:36;;;;;;;1.50;0.30;;;;;;;;;;483367;28;1023;-76
2024/01/04 00:02:52;;;;;;;1.03;0.20;;;;;;;;;;482729;28;1244;-75
2024/01/04 00:03:07;;;;;;;0.98;0.20;;;;;;;;;;483099;28;1082;-76
2024/01/04 00:03:25;;;;;;;1.13;0.20;;;;;;;;;;482814;28;1314;-76
2024/01/04 00:03:41;;;;;;;1.00;0.20;;;;;;;;;;483461;28;989;-76
2024/01/04 00:03:57;;;;;;;0.70;0.20;;;;;;;;;;484760;28;1141;-75
2024/01/04 00:04:12;;;;;;;0.45;0.20;;;;;;;;;;488636;28;1239;-75
2024/01/04 00:04:28;;;;;;;0.50;0.10;;;;;;;;;;485777;28;1087;-75
2024/01/04 00:04:43;;;;;;;0.73;0.20;;;;;;;;;;484786;28;1266;-76
2024/01/04 00:04:59;;;;;;;0.90;0.20;;;;;;;;;;485162;28;1113;-75
2024/01/04 00:05:14;;;;;;;1.30;0.30;;;;;;;;;;486182;28;1206;-75
2024/01/04 00:05:30;;;;;;;1.35;0.25;;;;;;;;;;484439;28;1143;-76
2024/01/04 00:05:46;;;;;;;0.77;0.20;;;;;;;;;;485274;28;1356;-74
2024/01/04 00:06:01;;;;;;;0.47;0.10;;;;;;;;;;487891;28;1085;-75
2024/01/04 00:06:19;;;;;;;0.80;0.20;;;;;;;;;;488146;28;1243;-76
2024/01/04 00:06:41;;;;;;;1.10;0.30;;;;;;;;;;486421;28;1283;-75
2024/01/04 00:06:56;;;;;;;0.70;0.20;;;;;;;;;;486219;28;1282;-77
2024/01/04 00:07:12;;;;;;;0.70;0.20;;;;;;;;;;486971;28;1046;-75
2024/01/04 00:07:27;;;;;;;0.40;0.10;;;;;;;;;;484333;28;958;-75
2024/01/04 00:07:43;;;;;;;0.65;0.10;;;;;;;;;;484857;28;1107;-76
2024/01/04 00:07:58;;;;;;;1.07;0.13;;;;;;;;;;484316;28;1319;-77
2024/01/04 00:08:14;;;;;;;0.85;0.10;;;;;;;;;;486493;28;1169;-75
2024/01/04 00:08:30;;;;;;;0.55;0.10;;;;;;;;;;487646;28;1562;-75
2024/01/04 00:08:46;;;;;;;1.13;0.20;;;;;;;;;;487619;28;1190;-76
2024/01/04 00:09:01;;;;;;;1.23;0.20;;;;;;;;;;487403;28;1110;-74
2024/01/04 00:09:17;;;;;;;1.23;0.20;;;;;;;;;;487987;28;1197;-76
2024/01/04 00:09:33;;;;;;;1.17;0.20;;;;;;;;;;487102;28;1102;-76
2024/01/04 00:09:48;;;;;;;0.82;0.20;;;;;;;;;;484909;28;1199;-75
2024/01/04 00:10:04;;;;;;;0.80;0.20;;;;;;;;;;485652;28;1366;-75
2024/01/04 00:10:20;;;;;;;0.50;0.20;;;;;;;;;;485102;28;1097;-76
2024/01/04 00:10:36;;;;;;;0.50;0.13;;;;;;;;;;482280;28;1946;-75
2024/01/04 00:10:52;;;;;;;0.80;0.10;;;;;;;;;;483680;28;1497;-76
2024/01/04 00:11:07;;;;;;;1.48;0.20;;;;;;;;;;483229;28;939;-76
2024/01/04 00:11:23;;;;;;;1.40;0.20;;;;;;;;;;485935;28;929;-76
2024/01/04 00:11:38;;;;;;;0.33;0.10;;;;;;;;;;485419;28;1138;-76
2024/01/04 00:11:53;;;;;;;0.47;0.17;;;;;;;;;;490356;28;1341;-75
2024/01/04 00:12:09;;;;;;;0.90;0.20;;;;;;;;;;489572;28;1178;-76
2024/01/04 00:12:25;;;;;;;0.80;0.20;;;;;;;;;;489696;28;1172;-75
2024/01/04 00:12:41;;;;;;;0.33;0.10;;;;;;;;;;486069;28;1167;-75
2024/01/04 00:12:56;;;;;;;0.68;0.20;;;;;;;;;;486901;28;1090;-75
2024/01/04 00:13:12;;;;;;;0.70;0.20;;;;;;;;;;486632;28;1312;-75
2024/01/04 00:13:27;;;;;;;0.37;0.10;;;;;;;;;;484783;28;1021;-76
2024/01/04 00:13:43;;;;;;;0.35;0.10;;;;;;;;;;484901;28;1632;-75
2024/01/04 00:14:01;;;;;;;0.50;0.20;;;;;;;;;;483645;28;1126;-76
2024/01/04 00:14:17;;;;;;;0.85;0.10;;;;;;;;;;485582;28;1034;-75
2024/01/04 00:14:32;;;;;;;0.93;0.20;;;;;;;;;;486506;28;1154;-75
2024/01/04 00:14:48;;;;;;;0.55;0.20;;;;;;;;;;488255;28;1165;-76
2024/01/04 00:15:03;;;;;;;0.60;0.20;;;;;;;;;;488256;28;1104;-76
2024/01/04 00:15:19;;;;;;;1.10;0.20;;;;;;;;;;488436;28;1280;-75
2024/01/04 00:15:34;;;;;;;1.23;0.20;;;;;;;;;;487997;28;1168;-75
2024/01/04 00:15:50;;;;;;;0.87;0.20;;;;;;;;;;489106;28;1176;-76
2024/01/04 00:16:11;;;;;;;0.50;0.13;;;;;;;;;;489185;28;1093;-75
2024/01/04 00:16:27;;;;;;;0.73;0.20;;;;;;;;;;486577;28;914;-75
2024/01/04 00:16:42;;;;;;;0.73;0.10;;;;;;;;;;483510;28;1240;-75
2024/01/04 00:16:58;;;;;;;0.28;0.10;;;;;;;;;;482708;28;977;-77
2024/01/04 00:17:13;;;;;;;0.30;0.10;;;;;;;;;;483383;28;1052;-75
2024/01/04 00:17:29;;;;;;;0.70;0.20;;;;;;;;;;483812;28;907;-75
2024/01/04 00:17:44;;;;;;;0.95;0.20;;;;;;;;;;483295;28;1327;-75
2024/01/04 00:18:00;;;;;;;0.83;0.13;;;;;;;;;;486220;28;1253;-76
2024/01/04 00:18:16;;;;;;;0.60;0.20;;;;;;;;;;487229;28;1244;-75
2024/01/04 00:18:32;;;;;;;0.80;0.20;;;;;;;;;;486503;28;1091;-75
2024/01/04 00:18:48;;;;;;;0.90;0.10;;;;;;;;;;488301;28;965;-75
2024/01/04 00:19:03;;;;;;;0.45;0.10;;;;;;;;;;486343;28;1362;-75
2024/01/04 00:19:19;;;;;;;0.30;0.10;;;;;;;;;;487576;28;1059;-75
2024/01/04 00:19:34;;;;;;;0.57;0.20;;;;;;;;;;487083;28;938;-75
2024/01/04 00:19:50;;;;;;;0.90;0.20;;;;;;;;;;486255;28;1088;-75
2024/01/04 00:20:06;;;;;;;1.33;0.20;;;;;;;;;;485215;28;1375;-74
2024/01/04 00:20:24;;;;;;;0.93;0.20;;;;;;;;;;484458;28;1191;-75
2024/01/04 00:20:39;;;;;;;0.52;0.10;;;;;;;;;;485672;28;1030;-76
2024/01/04 00:20:55;;;;;;;0.30;0.10;;;;;;;;;;484508;28;1060;-76
2024/01/04 00:21:13;;;;;;;0.20;0.10;;;;;;;;;;483709;28;977;-75
2024/01/04 00:21:29;;;;;;;0.55;0.10;;;;;;;;;;485676;28;905;-75
2024/01/04 00:21:44;;;;;;;0.50;0.13;;;;;;;;;;485541;28;1208;-75
2024/01/04 00:22:00;;;;;;;0.50;0.20;;;;;;;;;;486554;28;998;-75
2024/01/04 00:22:15;;;;;;;0.60;0.20;;;;;;;;;;484426;28;1231;-76
2024/01/04 00:22:31;;;;;;;0.60;0.20;;;;;;;;;;485495;28;939;-75
2024/01/04 00:22:46;;;;;;;0.23;0.10;;;;;;;;;;485632;28;903;-75
2024/01/04 00:23:01;;;;;;;0.60;0.10;;;;;;;;;;485603;28;1274;-75
2024/01/04 00:23:17;;;;;;;1.00;0.17;;;;;;;;;;486797;28;1089;-76
2024/01/04 00:23:34;;;;;;;0.52;0.20;;;;;;;;;;486847;28;1192;-75
2024/01/04 00:23:49;;;;;;;1.05;0.20;;;;;;;;;;488678;28;1313;-75
2024/01/04 00:24:06;;;;;;;1.53;0.23;;;;;;;;;;485599;28;1131;-76
2024/01/04 00:24:23;;;;;;;0.90;0.20;;;;;;;;;;486264;28;1179;-75
2024/01/04 00:24:39;;;;;;;0.52;0.10;;;;;;;;;;489181;28;1419;-75
2024/01/04 00:24:54;;;;;;;0.45;0.10;;;;;;;;;;488983;28;878;-75
2024/01/04 00:25:09;;;;;;;0.30;0.10;;;;;;;;;;488135;28;989;-75
2024/01/04 00:25:25;;;;;;;0.50;0.20;;;;;;;;;;485325;28;1040;-75
2024/01/04 00:25:40;;;;;;;0.95;0.20;;;;;;;;;;484719;28;962;-76
2024/01/04 00:25:56;;;;;;;0.80;0.20;;;;;;;;;;485653;28;1272;-76
2024/01/04 00:26:11;;;;;;;0.63;0.10;;;;;;;;;;488239;28;1007;-76
2024/01/04 00:26:27;;;;;;;0.53;0.10;;;;;;;;;;487708;28;1350;-76
2024/01/04 00:26:42;;;;;;;0.50;0.17;;;;;;;;;;489005;28;1046;-75
2024/01/04 00:26:58;;;;;;;0.67;0.20;;;;;;;;;;488120;28;1016;-75
2024/01/04 00:27:13;;;;;;;0.77;0.17;;;;;;;;;;489332;28;1008;-76
2024/01/04 00:27:28;;;;;;;0.70;0.10;;;;;;;;;;486639;28;1170;-76
2024/01/04 00:27:44;;;;;;;0.50;0.10;;;;;;;;;;486415;28;1089;-75
2024/01/04 00:28:00;;;;;;;0.60;0.17;;;;;;;;;;487399;28;1303;-76
2024/01/04 00:28:15;;;;;;;0.50;0.20;;;;;;;;;;488284;28;934;-75
2024/01/04 00:28:30;;;;;;;0.50;0.20;;;;;;;;;;489967;28;1164;-75
2024/01/04 00:28:46;;;;;;;0.50;0.20;;;;;;;;;;487389;28;1092;-77
2024/01/04 00:29:01;;;;;;;1.00;0.22;;;;;;;;;;486558;28;1112;-76
2024/01/04 00:29:16;;;;;;;1.17;0.30;;;;;;;;;;485905;28;868;-76
2024/01/04 00:29:32;;;;;;;0.65;0.22;;;;;;;;;;487296;28;1330;-75
2024/01/04 00:29:47;;;;;;;0.30;0.10;;;;;;;;;;488068;28;960;-76
2024/01/04 00:30:03;;;;;;;0.50;0.20;;;;;;;;;;485089;28;1192;-76
2024/01/04 00:30:18;;;;;;;0.82;0.20;;;;;;;;;;485731;28;1037;-75
2024/01/04 00:30:35;;;;;;;1.08;0.20;;;;;;;;;;486353;28;1165;-75
2024/01/04 00:30:50;;;;;;;0.88;0.20;;;;;;;;;;486273;28;1505;-75
2024/01/04 00:31:05;;;;;;;0.60;0.20;;;;;;;;;;487553;28;955;-76
2024/01/04 00:31:21;;;;;;;0.83;0.13;;;;;;;;;;487902;28;980;-76
2024/01/04 00:31:36;;;;;;;1.00;0.20;;;;;;;;;;488471;28;1085;-75
2024/01/04 00:31:51;;;;;;;0.80;0.20;;;;;;;;;;487800;28;1183;-75
2024/01/04 00:32:07;;;;;;;0.47;0.13;;;;;;;;;;488920;28;897;-75
2024/01/04 00:32:22;;;;;;;0.70;0.20;;;;;;;;;;487662;28;1098;-76
2024/01/04 00:32:38;;;;;;;1.00;0.20;;;;;;;;;;486400;28;1313;-75
2024/01/04 00:32:53;;;;;;;0.70;0.20;;;;;;;;;;485377;28;1164;-76
2024/01/04 00:33:08;;;;;;;0.93;0.30;;;;;;;;;;485860;28;1253;-75
2024/01/04 00:33:24;;;;;;;0.90;0.20;;;;;;;;;;487845;28;1060;-76
2024/01/04 00:33:39;;;;;;;0.68;0.20;;;;;;;;;;487354;28;1245;-75
2024/01/04 00:33:55;;;;;;;1.37;0.30;;;;;;;;;;485752;28;1167;-75
2024/01/04 00:34:10;;;;;;;1.02;0.20;;;;;;;;;;485681;28;1237;-75
2024/01/04 00:34:25;;;;;;;0.77;0.20;;;;;;;;;;484791;28;1223;-76
2024/01/04 00:34:41;;;;;;;0.65;0.20;;;;;;;;;;484274;28;1041;-75
2024/01/04 00:34:56;;;;;;;0.60;0.20;;;;;;;;;;484103;28;1130;-75
2024/01/04 00:35:11;;;;;;;1.70;0.20;;;;;;;;;;484937;28;889;-75
2024/01/04 00:35:27;;;;;;;1.50;0.20;;;;;;;;;;485292;28;918;-75
2024/01/04 00:35:42;;;;;;;0.83;0.20;;;;;;;;;;485631;28;1204;-75
2024/01/04 00:35:58;;;;;;;0.80;0.20;;;;;;;;;;485981;28;929;-75
2024/01/04 00:36:14;;;;;;;0.40;0.20;;;;;;;;;;485361;28;916;-75
2024/01/04 00:36:29;;;;;;;0.55;0.20;;;;;;;;;;487667;28;1294;-75
2024/01/04 00:36:45;;;;;;;0.90;0.15;;;;;;;;;;486517;28;1041;-75
2024/01/04 00:37:00;;;;;;;0.77;0.20;;;;;;;;;;486956;28;1079;-75
2024/01/04 00:37:16;;;;;;;0.93;0.20;;;;;;;;;;484466;28;1041;-76
2024/01/04 00:37:31;;;;;;;1.57;0.20;;;;;;;;;;483797;28;1023;-75
2024/01/04 00:37:46;;;;;;;1.20;0.17;;;;;;;;;;485288;28;1182;-76
2024/01/04 00:38:02;;;;;;;0.88;0.20;;;;;;;;;;482571;28;1401;-76
2024/01/04 00:38:17;;;;;;;0.50;0.10;;;;;;;;;;483974;28;1768;-76
2024/01/04 00:38:38;;;;;;;0.45;0.10;;;;;;;;;;484889;28;1141;-75
2024/01/04 00:38:54;;;;;;;0.70;0.20;;;;;;;;;;483276;28;1288;-76
2024/01/04 00:39:09;;;;;;;0.27;0.10;;;;;;;;;;485041;28;1196;-76
2024/01/04 00:39:24;;;;;;;0.90;0.20;;;;;;;;;;483859;28;1216;-76
2024/01/04 00:39:40;;;;;;;1.20;0.20;;;;;;;;;;483484;28;965;-75
2024/01/04 00:39:55;;;;;;;0.50;0.17;;;;;;;;;;485482;28;888;-76
2024/01/04 00:40:11;;;;;;;0.40;0.17;;;;;;;;;;486048;28;1121;-76
2024/01/04 00:40:28;;;;;;;0.40;0.10;;;;;;;;;;487195;28;873;-77
2024/01/04 00:40:44;;;;;;;1.02;0.20;;;;;;;;;;487225;28;1070;-76
2024/01/04 00:41:01;;;;;;;1.15;0.25;;;;;;;;;;488039;28;1691;-76
2024/01/04 00:41:17;;;;;;;0.77;0.20;;;;;;;;;;487792;28;1097;-75
2024/01/04 00:41:32;;;;;;;0.70;0.20;;;;;;;;;;488730;28;1322;-75
2024/01/04 00:41:48;;;;;;;0.63;0.13;;;;;;;;;;489339;28;1191;-74
2024/01/04 00:42:03;;;;;;;1.20;0.20;;;;;;;;;;489679;28;1287;-75
2024/01/04 00:42:19;;;;;;;1.20;0.20;;;;;;;;;;487626;28;929;-75
2024/01/04 00:42:35;;;;;;;0.87;0.20;;;;;;;;;;488627;28;1084;-75
2024/01/04 00:42:51;;;;;;;0.85;0.20;;;;;;;;;;488551;28;1303;-74
2024/01/04 00:43:07;;;;;;;0.38;0.13;;;;;;;;;;489427;28;1211;-75
2024/01/04 00:43:22;;;;;;;0.60;0.20;;;;;;;;;;486109;28;1271;-75
2024/01/04 00:43:38;;;;;;;0.65;0.20;;;;;;;;;;485992;28;1387;-76
2024/01/04 00:43:53;;;;;;;1.23;0.20;;;;;;;;;;486194;28;927;-76
2024/01/04 00:44:09;;;;;;;1.33;0.20;;;;;;;;;;484961;28;1280;-75
2024/01/04 00:44:24;;;;;;;1.20;0.27;;;;;;;;;;484025;28;1139;-77
2024/01/04 00:44:40;;;;;;;1.27;0.30;;;;;;;;;;484301;28;1097;-76
2024/01/04 00:44:55;;;;;;;0.80;0.30;;;;;;;;;;481186;28;1307;-75
2024/01/04 00:45:11;;;;;;;0.77;0.20;;;;;;;;;;482968;28;1260;-75
2024/01/04 00:45:26;;;;;;;0.97;0.10;;;;;;;;;;483905;28;955;-75
2024/01/04 00:45:42;;;;;;;1.10;0.20;;;;;;;;;;484914;28;1109;-75
2024/01/04 00:45:58;;;;;;;0.80;0.20;;;;;;;;;;484118;28;1180;-75
2024/01/04 00:46:14;;;;;;;1.08;0.20;;;;;;;;;;483392;28;1192;-75
2024/01/04 00:46:29;;;;;;;0.93;0.17;;;;;;;;;;484588;28;929;-75
2024/01/04 00:46:45;;;;;;;0.40;0.10;;;;;;;;;;485479;28;981;-76
2024/01/04 00:47:00;;;;;;;0.82;0.10;;;;;;;;;;485915;28;870;-76
2024/01/04 00:47:16;;;;;;;1.07;0.20;;;;;;;;;;485666;28;1371;-75
2024/01/04 00:47:32;;;;;;;1.02;0.20;;;;;;;;;;486525;28;1019;-75
2024/01/04 00:47:47;;;;;;;1.57;0.20;;;;;;;;;;487223;28;1306;-75
2024/01/04 00:48:03;;;;;;;1.35;0.20;;;;;;;;;;488868;28;1114;-74
2024/01/04 00:48:18;;;;;;;1.05;0.20;;;;;;;;;;490602;28;1183;-75
2024/01/04 00:48:34;;;;;;;1.40;0.20;;;;;;;;;;487602;28;1266;-75
2024/01/04 00:48:49;;;;;;;1.60;0.20;;;;;;;;;;486867;28;1111;-75
2024/01/04 00:49:05;;;;;;;0.90;0.10;;;;;;;;;;487297;28;1348;-75
2024/01/04 00:49:20;;;;;;;0.30;0.10;;;;;;;;;;485935;28;1117;-75
2024/01/04 00:49:36;;;;;;;0.68;0.17;;;;;;;;;;487716;28;982;-75
2024/01/04 00:49:51;;;;;;;0.70;0.20;;;;;;;;;;487359;28;1294;-75
2024/01/04 00:50:07;;;;;;;0.32;0.10;;;;;;;;;;488531;28;1574;-75
2024/01/04 00:50:22;;;;;;;0.70;0.10;;;;;;;;;;489402;28;1037;-75
2024/01/04 00:50:38;;;;;;;1.03;0.20;;;;;;;;;;490993;28;1946;-75
2024/01/04 00:50:53;;;;;;;1.10;0.20;;;;;;;;;;490866;28;1120;-75
2024/01/04 00:51:09;;;;;;;0.90;0.20;;;;;;;;;;488413;28;1334;-74
2024/01/04 00:51:24;;;;;;;0.80;0.10;;;;;;;;;;488872;28;1296;-76
2024/01/04 00:51:41;;;;;;;0.70;0.10;;;;;;;;;;487402;28;1334;-75
2024/01/04 00:51:56;;;;;;;0.80;0.20;;;;;;;;;;486753;28;1379;-75
2024/01/04 00:52:11;;;;;;;0.80;0.20;;;;;;;;;;486916;28;1208;-76
2024/01/04 00:52:27;;;;;;;0.97;0.27;;;;;;;;;;485531;28;1283;-76
2024/01/04 00:52:42;;;;;;;1.20;0.20;;;;;;;;;;486203;28;1005;-75
2024/01/04 00:52:58;;;;;;;0.67;0.20;;;;;;;;;;485501;28;1021;-77
2024/01/04 00:53:13;;;;;;;0.90;0.20;;;;;;;;;;487318;28;1122;-76
2024/01/04 00:53:29;;;;;;;1.47;0.20;;;;;;;;;;486642;28;915;-75
2024/01/04 00:53:44;;;;;;;0.85;0.20;;;;;;;;;;488322;28;1228;-75
2024/01/04 00:54:02;;;;;;;0.90;0.30;;;;;;;;;;488945;28;973;-75
2024/01/04 00:54:17;;;;;;;0.82;0.30;;;;;;;;;;487155;28;1492;-77
2024/01/04 00:54:33;;;;;;;0.87;0.20;;;;;;;;;;490717;28;953;-75
2024/01/04 00:54:49;;;;;;;1.20;0.20;;;;;;;;;;488819;28;1333;-75
2024/01/04 00:55:04;;;;;;;1.03;0.20;;;;;;;;;;487693;28;1084;-75
2024/01/04 00:55:20;;;;;;;0.95;0.20;;;;;;;;;;487612;28;1316;-75
2024/01/04 00:55:36;;;;;;;0.90;0.20;;;;;;;;;;486594;28;1236;-75
2024/01/04 00:55:52;;;;;;;0.93;0.20;;;;;;;;;;485368;28;1294;-74
2024/01/04 00:56:08;;;;;;;0.60;0.10;;;;;;;;;;486742;28;1045;-75
2024/01/04 00:56:23;;;;;;;0.90;0.20;;;;;;;;;;488086;28;938;-75
2024/01/04 00:56:39;;;;;;;1.00;0.20;;;;;;;;;;486891;28;1069;-75
2024/01/04 00:56:55;;;;;;;0.60;0.13;;;;;;;;;;486855;28;1037;-75
2024/01/04 00:57:10;;;;;;;0.45;0.10;;;;;;;;;;486936;28;1110;-75
2024/01/04 00:57:26;;;;;;;1.23;0.20;;;;;;;;;;487807;28;948;-75
2024/01/04 00:57:42;;;;;;;1.38;0.25;;;;;;;;;;489714;28;1104;-76
2024/01/04 00:57:57;;;;;;;0.85;0.20;;;;;;;;;;488623;28;1202;-77
2024/01/04 00:58:13;;;;;;;1.37;0.23;;;;;;;;;;489941;28;1294;-75
2024/01/04 00:58:28;;;;;;;0.90;0.20;;;;;;;;;;489827;28;921;-75
2024/01/04 00:58:44;;;;;;;0.35;0.10;;;;;;;;;;489704;28;1322;-75
2024/01/04 00:59:03;;;;;;;0.57;0.10;;;;;;;;;;490064;28;1194;-75
2024/01/04 00:59:19;;;;;;;0.85;0.20;;;;;;;;;;490416;28;933;-74
2024/01/04 00:59:34;;;;;;;1.10;0.20;;;;;;;;;;490522;28;1133;-75
2024/01/04 00:59:50;;;;;;;1.00;0.20;;;;;;;;;;488680;28;1102;-75
2024/01/04 01:00:06;;;;;;;0.70;0.23;;;;;;;;;;487922;28;1245;-75
2024/01/04 01:00:22;;;;;;;0.30;0.20;;;;;;;;;;487555;28;905;-75
2024/01/04 01:00:37;;;;;;;0.50;0.20;;;;;;;;;;487342;28;971;-75
2024/01/04 01:00:53;;;;;;;1.00;0.20;;;;;;;;;;486548;28;1313;-74
2024/01/04 01:01:08;;;;;;;1.05;0.25;;;;;;;;;;484123;28;1278;-75
2024/01/04 01:01:24;;;;;;;0.70;0.20;;;;;;;;;;484004;28;987;-74
2024/01/04 01:01:39;;;;;;;0.50;0.20;;;;;;;;;;481335;28;1246;-75
2024/01/04 01:01:55;;;;;;;0.63;0.20;;;;;;;;;;482324;28;1237;-75
2024/01/04 01:02:10;;;;;;;0.85;0.30;;;;;;;;;;484153;28;1083;-76
2024/01/04 01:02:25;;;;;;;0.90;0.20;;;;;;;;;;484333;28;1333;-76
2024/01/04 01:02:41;;;;;;;0.93;0.10;;;;;;;;;;485317;28;1133;-75
2024/01/04 01:02:56;;;;;;;1.00;0.20;;;;;;;;;;482698;28;1184;-75
2024/01/04 01:03:12;;;;;;;1.23;0.20;;;;;;;;;;482014;28;1199;-75
2024/01/04 01:03:27;;;;;;;1.10;0.20;;;;;;;;;;484729;28;1606;-76
2024/01/04 01:03:43;;;;;;;0.73;0.20;;;;;;;;;;486445;28;1275;-76
2024/01/04 01:03:59;;;;;;;0.70;0.20;;;;;;;;;;485262;28;979;-75
2024/01/04 01:04:14;;;;;;;1.13;0.25;;;;;;;;;;485389;28;1189;-76
2024/01/04 01:04:30;;;;;;;0.93;0.20;;;;;;;;;;486286;28;973;-75
2024/01/04 01:04:45;;;;;;;0.67;0.20;;;;;;;;;;486400;28;1253;-76
2024/01/04 01:05:01;;;;;;;1.17;0.20;;;;;;;;;;486110;28;1001;-75
2024/01/04 01:05:16;;;;;;;0.90;0.20;;;;;;;;;;487923;28;1318;-76
2024/01/04 01:05:32;;;;;;;0.85;0.20;;;;;;;;;;488861;28;984;-76
2024/01/04 01:05:47;;;;;;;1.03;0.30;;;;;;;;;;487143;28;1299;-77
2024/01/04 01:06:03;;;;;;;1.10;0.30;;;;;;;;;;485503;28;1049;-75
2024/01/04 01:06:18;;;;;;;0.70;0.20;;;;;;;;;;487603;28;909;-75
2024/01/04 01:06:34;;;;;;;0.57;0.10;;;;;;;;;;488506;28;1419;-75
2024/01/04 01:06:49;;;;;;;0.63;0.10;;;;;;;;;;487996;28;1287;-74
2024/01/04 01:07:05;;;;;;;1.05;0.20;;;;;;;;;;488530;28;1301;-75
2024/01/04 01:07:21;;;;;;;1.10;0.23;;;;;;;;;;487607;28;946;-76
2024/01/04 01:07:36;;;;;;;0.75;0.20;;;;;;;;;;489315;28;1122;-75
2024/01/04 01:07:51;;;;;;;0.80;0.20;;;;;;;;;;490277;28;1096;-75
2024/01/04 01:08:07;;;;;;;0.57;0.10;;;;;;;;;;490864;28;1243;-76
2024/01/04 01:08:24;;;;;;;0.90;0.20;;;;;;;;;;487799;28;1317;-75
2024/01/04 01:08:40;;;;;;;1.00;0.30;;;;;;;;;;489571;28;1280;-76
2024/01/04 01:08:55;;;;;;;1.10;0.30;;;;;;;;;;489126;28;1016;-75
2024/01/04 01:09:11;;;;;;;0.80;0.25;;;;;;;;;;488937;28;1087;-75
2024/01/04 01:09:26;;;;;;;0.50;0.20;;;;;;;;;;489265;28;960;-75
2024/01/04 01:09:42;;;;;;;0.60;0.20;;;;;;;;;;489267;28;1396;-75
2024/01/04 01:09:57;;;;;;;0.90;0.17;;;;;;;;;;488860;28;1026;-75
2024/01/04 01:10:13;;;;;;;0.83;0.20;;;;;;;;;;488743;28;1094;-75
2024/01/04 01:10:29;;;;;;;0.90;0.20;;;;;;;;;;491254;28;1358;-75
2024/01/04 01:10:45;;;;;;;1.00;0.30;;;;;;;;;;490964;28;1966;-77
2024/01/04 01:11:00;;;;;;;1.40;0.30;;;;;;;;;;489015;28;1154;-75
2024/01/04 01:11:16;;;;;;;1.20;0.20;;;;;;;;;;488492;28;1311;-75
2024/01/04 01:11:31;;;;;;;0.80;0.17;;;;;;;;;;487976;28;953;-76
2024/01/04 01:11:46;;;;;;;0.70;0.20;;;;;;;;;;488075;28;1408;-75
2024/01/04 01:12:02;;;;;;;0.87;0.20;;;;;;;;;;486939;28;1241;-76
2024/01/04 01:12:18;;;;;;;1.58;0.20;;;;;;;;;;484614;28;1213;-76
2024/01/04 01:12:33;;;;;;;1.17;0.20;;;;;;;;;;484084;28;1212;-75
2024/01/04 01:12:48;;;;;;;0.65;0.20;;;;;;;;;;483853;28;1352;-75
2024/01/04 01:13:04;;;;;;;0.80;0.23;;;;;;;;;;483810;28;1184;-75
2024/01/04 01:13:22;;;;;;;0.60;0.10;;;;;;;;;;481928;28;1392;-75
2024/01/04 01:13:38;;;;;;;0.40;0.10;;;;;;;;;;483510;28;1206;-75
2024/01/04 01:13:53;;;;;;;1.70;0.20;;;;;;;;;;482781;28;1267;-77
2024/01/04 01:14:09;;;;;;;2.58;0.30;;;;;;;;;;482099;28;1228;-75
2024/01/04 01:14:25;;;;;;;1.50;0.30;;;;;;;;;;482045;28;1258;-76
2024/01/04 01:14:41;;;;;;;0.50;0.10;;;;;;;;;;482998;28;1054;-77
2024/01/04 01:14:56;;;;;;;0.85;0.20;;;;;;;;;;483202;28;1247;-75
2024/01/04 01:15:12;;;;;;;1.10;0.30;;;;;;;;;;484938;28;1010;-75
2024/01/04 01:15:27;;;;;;;0.80;0.20;;;;;;;;;;486152;28;1331;-75
2024/01/04 01:15:43;;;;;;;1.30;0.20;;;;;;;;;;484981;28;1258;-75
2024/01/04 01:15:58;;;;;;;1.30;0.20;;;;;;;;;;483671;28;1327;-75
2024/01/04 01:16:14;;;;;;;1.00;0.20;;;;;;;;;;484081;28;973;-75
2024/01/04 01:16:30;;;;;;;1.02;0.13;;;;;;;;;;484787;28;1585;-75
2024/01/04 01:16:45;;;;;;;0.70;0.20;;;;;;;;;;484745;28;1232;-75
2024/01/04 01:17:01;;;;;;;0.80;0.20;;;;;;;;;;485622;28;1137;-75
2024/01/04 01:17:17;;;;;;;1.00;0.15;;;;;;;;;;484905;28;902;-75
2024/01/04 01:17:33;;;;;;;0.80;0.20;;;;;;;;;;489300;28;1156;-75
2024/01/04 01:17:48;;;;;;;0.57;0.20;;;;;;;;;;488667;28;960;-75
2024/01/04 01:18:04;;;;;;;0.50;0.20;;;;;;;;;;489895;28;1159;-76
2024/01/04 01:18:19;;;;;;;0.75;0.20;;;;;;;;;;488387;28;1023;-75
2024/01/04 01:18:35;;;;;;;0.80;0.20;;;;;;;;;;488482;28;998;-75
2024/01/04 01:18:51;;;;;;;0.52;0.20;;;;;;;;;;489854;28;1003;-76
2024/01/04 01:19:07;;;;;;;0.50;0.20;;;;;;;;;;488105;28;1033;-75
2024/01/04 01:19:23;;;;;;;0.63;0.20;;;;;;;;;;488311;28;1649;-75
2024/01/04 01:19:39;;;;;;;0.98;0.30;;;;;;;;;;489606;28;1213;-75
2024/01/04 01:19:54;;;;;;;1.10;0.20;;;;;;;;;;488382;28;1068;-76
2024/01/04 01:20:10;;;;;;;0.97;0.20;;;;;;;;;;488331;28;1818;-74
2024/01/04 01:20:25;;;;;;;1.20;0.20;;;;;;;;;;489873;28;1211;-74
2024/01/04 01:20:41;;;;;;;0.97;0.20;;;;;;;;;;490558;28;1105;-75
2024/01/04 01:20:58;;;;;;;1.42;0.22;;;;;;;;;;491464;28;1056;-75
2024/01/04 01:21:13;;;;;;;1.08;0.20;;;;;;;;;;488036;28;1169;-76
2024/01/04 01:21:29;;;;;;;0.40;0.10;;;;;;;;;;488338;28;1327;-76
2024/01/04 01:21:44;;;;;;;0.40;0.20;;;;;;;;;;486863;28;1300;-77
2024/01/04 01:22:00;;;;;;;0.60;0.20;;;;;;;;;;486029;28;1228;-75
2024/01/04 01:22:15;;;;;;;0.73;0.10;;;;;;;;;;483680;28;1473;-76
2024/01/04 01:22:31;;;;;;;0.60;0.20;;;;;;;;;;482462;28;1212;-75
2024/01/04 01:22:46;;;;;;;0.50;0.20;;;;;;;;;;482212;28;1241;-76
2024/01/04 01:23:02;;;;;;;1.20;0.20;;;;;;;;;;483255;28;1602;-75
2024/01/04 01:23:17;;;;;;;1.35;0.30;;;;;;;;;;483054;28;967;-74
2024/01/04 01:23:33;;;;;;;0.90;0.30;;;;;;;;;;483794;28;1228;-75
2024/01/04 01:23:48;;;;;;;0.85;0.20;;;;;;;;;;484101;28;1250;-75
2024/01/04 01:24:04;;;;;;;0.63;0.20;;;;;;;;;;486586;28;1270;-75
2024/01/04 01:24:19;;;;;;;1.65;0.30;;;;;;;;;;485644;28;949;-75
2024/01/04 01:24:35;;;;;;;1.50;0.20;;;;;;;;;;486205;28;1137;-75
2024/01/04 01:24:51;;;;;;;0.30;0.10;;;;;;;;;;486965;28;1059;-75
2024/01/04 01:25:07;;;;;;;0.60;0.10;;;;;;;;;;486913;28;1301;-75
2024/01/04 01:25:23;;;;;;;0.68;0.13;;;;;;;;;;491433;28;1104;-76
2024/01/04 01:25:38;;;;;;;0.90;0.20;;;;;;;;;;493118;28;1047;-75
2024/01/04 01:25:53;;;;;;;0.73;0.30;;;;;;;;;;492062;28;1427;-75
2024/01/04 01:26:09;;;;;;;0.60;0.20;;;;;;;;;;489571;28;1309;-75
2024/01/04 01:26:24;;;;;;;0.80;0.10;;;;;;;;;;489186;28;1212;-75
2024/01/04 01:26:42;;;;;;;1.57;0.10;;;;;;;;;;489106;28;1220;-75
2024/01/04 01:27:00;;;;;;;1.52;0.20;;;;;;;;;;488711;28;1167;-75
2024/01/04 01:27:16;;;;;;;0.90;0.20;;;;;;;;;;487267;28;1401;-76
2024/01/04 01:27:31;;;;;;;0.40;0.10;;;;;;;;;;486863;28;1199;-76
2024/01/04 01:27:47;;;;;;;0.47;0.10;;;;;;;;;;486096;28;1257;-75
2024/01/04 01:28:03;;;;;;;0.65;0.10;;;;;;;;;;486426;28;902;-75
2024/01/04 01:28:18;;;;;;;1.10;0.20;;;;;;;;;;487296;28;1138;-76
2024/01/04 01:28:34;;;;;;;1.10;0.20;;;;;;;;;;486399;28;1211;-75
2024/01/04 01:28:49;;;;;;;1.33;0.20;;;;;;;;;;483208;28;1199;-75
2024/01/04 01:29:04;;;;;;;0.97;0.10;;;;;;;;;;483022;28;1331;-75
2024/01/04 01:29:20;;;;;;;0.33;0.03;;;;;;;;;;484503;28;1124;-75
2024/01/04 01:29:36;;;;;;;1.00;0.20;;;;;;;;;;486186;28;1375;-75
2024/01/04 01:29:51;;;;;;;1.13;0.25;;;;;;;;;;488146;28;1055;-75
2024/01/04 01:30:07;;;;;;;0.90;0.10;;;;;;;;;;487945;28;1227;-75
2024/01/04 01:30:23;;;;;;;0.90;0.15;;;;;;;;;;487716;28;956;-75
2024/01/04 01:30:38;;;;;;;1.00;0.20;;;;;;;;;;485902;28;1064;-75
2024/01/04 01:30:53;;;;;;;0.60;0.20;;;;;;;;;;486313;28;2106;-75
2024/01/04 01:31:09;;;;;;;0.45;0.20;;;;;;;;;;487273;28;1211;-75
2024/01/04 01:31:24;;;;;;;0.30;0.20;;;;;;;;;;485814;28;1377;-75
2024/01/04 01:31:41;;;;;;;0.30;0.15;;;;;;;;;;485647;28;1075;-74
2024/01/04 01:31:56;;;;;;;0.52;0.20;;;;;;;;;;486124;28;1071;-76
2024/01/04 01:32:14;;;;;;;0.50;0.20;;;;;;;;;;485561;28;1151;-75
2024/01/04 01:32:29;;;;;;;0.45;0.20;;;;;;;;;;485019;28;1159;-75
2024/01/04 01:32:45;;;;;;;0.63;0.20;;;;;;;;;;485898;28;1227;-76
2024/01/04 01:33:00;;;;;;;0.50;0.17;;;;;;;;;;486865;28;1314;-75
2024/01/04 01:33:16;;;;;;;0.55;0.20;;;;;;;;;;487527;28;1277;-75
2024/01/04 01:33:31;;;;;;;0.63;0.20;;;;;;;;;;487225;28;1147;-75
2024/01/04 01:33:47;;;;;;;0.65;0.10;;;;;;;;;;487977;28;1057;-75
2024/01/04 01:34:02;;;;;;;0.70;0.10;;;;;;;;;;487441;28;1203;-75
2024/01/04 01:34:18;;;;;;;0.77;0.20;;;;;;;;;;483830;28;1180;-74
2024/01/04 01:34:33;;;;;;;1.20;0.20;;;;;;;;;;484235;28;927;-75
2024/01/04 01:34:48;;;;;;;0.77;0.10;;;;;;;;;;481485;28;1034;-75
2024/01/04 01:35:04;;;;;;;0.40;0.13;;;;;;;;;;484386;28;1294;-75
2024/01/04 01:35:20;;;;;;;0.53;0.20;;;;;;;;;;484878;28;1006;-75
2024/01/04 01:35:35;;;;;;;0.50;0.10;;;;;;;;;;485375;28;1125;-75
2024/01/04 01:35:51;;;;;;;0.57;0.20;;;;;;;;;;485012;28;1085;-75
2024/01/04 01:36:07;;;;;;;0.55;0.20;;;;;;;;;;486411;28;1304;-74
2024/01/04 01:36:22;;;;;;;0.90;0.10;;;;;;;;;;488308;28;870;-75
2024/01/04 01:36:41;;;;;;;1.43;0.30;;;;;;;;;;487534;28;917;-75
2024/01/04 01:36:58;;;;;;;0.90;0.30;;;;;;;;;;487836;28;1041;-76
2024/01/04 01:37:14;;;;;;;0.95;0.15;;;;;;;;;;488178;28;1427;-76
2024/01/04 01:37:30;;;;;;;0.65;0.20;;;;;;;;;;485221;28;1327;-77